<?xml version="1.0" encoding="UTF-8" standalone="no" ?>
<gpx xmlns="http://www.topografix.com/GPX/1/1" xmlns:xsi="http://www.w3.org/2001/XMLSchema-instance" xsi:schemaLocation="http://www.topografix.com/GPX/1/1 http://www.topografix.com/GPX/1/1/gpx.xsd" version="1.1" creator="VisuGPX - https://www.visugpx.com">
  <metadata>
    <name>CANADA - RAQUETTES - La Tourbière - Sainte-Catherine de la Jacques Cartier</name>
    <desc><![CDATA[Domaine de la station touristique Duchesnay]]></desc>
  </metadata>
  <wpt lat="46.86914" lon="-71.64209">
    <ele>194</ele>
    <name><![CDATA[Base de départ]]></name>
    <desc><![CDATA[22-MAR-16 12:54:15]]></desc>
    <cmt><![CDATA[22-MAR-16 12:54:15]]></cmt>
  </wpt>
  <wpt lat="46.8696" lon="-71.64299">
    <name><![CDATA[Horizon]]></name>
  </wpt>
  <trk>
    <name><![CDATA[ACTIVE LOG 003]]></name>
    <trkseg>
      <trkpt lat="46.8695" lon="-71.64295">
        <ele>223.64379882812</ele>
        <time>2016-03-22T14:30:31Z</time>
      </trkpt>
      <trkpt lat="46.86951" lon="-71.64294">
        <ele>223.64379882812</ele>
        <time>2016-03-22T14:30:32Z</time>
      </trkpt>
      <trkpt lat="46.86951" lon="-71.64294">
        <ele>223.64379882812</ele>
        <time>2016-03-22T14:30:33Z</time>
      </trkpt>
      <trkpt lat="46.86951" lon="-71.64293">
        <ele>222.68249511719</ele>
        <time>2016-03-22T14:30:40Z</time>
      </trkpt>
      <trkpt lat="46.86946" lon="-71.6429">
        <ele>221.24060058594</ele>
        <time>2016-03-22T14:30:51Z</time>
      </trkpt>
      <trkpt lat="46.86948" lon="-71.643">
        <ele>223.16320800781</ele>
        <time>2016-03-22T14:31:10Z</time>
      </trkpt>
      <trkpt lat="46.86951" lon="-71.64305">
        <ele>221.72119140625</ele>
        <time>2016-03-22T14:31:24Z</time>
      </trkpt>
      <trkpt lat="46.86958" lon="-71.64322">
        <ele>222.20178222656</ele>
        <time>2016-03-22T14:31:37Z</time>
      </trkpt>
      <trkpt lat="46.86957" lon="-71.64326">
        <ele>221.72119140625</ele>
        <time>2016-03-22T14:31:39Z</time>
      </trkpt>
      <trkpt lat="46.86956" lon="-71.64327">
        <ele>222.20178222656</ele>
        <time>2016-03-22T14:31:44Z</time>
      </trkpt>
      <trkpt lat="46.86956" lon="-71.64322">
        <ele>222.20178222656</ele>
        <time>2016-03-22T14:31:49Z</time>
      </trkpt>
      <trkpt lat="46.86955" lon="-71.64301">
        <ele>222.20178222656</ele>
        <time>2016-03-22T14:32:09Z</time>
      </trkpt>
      <trkpt lat="46.8696" lon="-71.64315">
        <ele>221.24060058594</ele>
        <time>2016-03-22T14:32:27Z</time>
      </trkpt>
      <trkpt lat="46.86963" lon="-71.64327">
        <ele>221.72119140625</ele>
        <time>2016-03-22T14:32:35Z</time>
      </trkpt>
      <trkpt lat="46.86963" lon="-71.6434">
        <ele>224.12451171875</ele>
        <time>2016-03-22T14:32:45Z</time>
      </trkpt>
      <trkpt lat="46.86968" lon="-71.64352">
        <ele>224.12451171875</ele>
        <time>2016-03-22T14:32:59Z</time>
      </trkpt>
      <trkpt lat="46.86977" lon="-71.64351">
        <ele>225.0859375</ele>
        <time>2016-03-22T14:33:15Z</time>
      </trkpt>
      <trkpt lat="46.8699" lon="-71.64355">
        <ele>227.00854492188</ele>
        <time>2016-03-22T14:33:30Z</time>
      </trkpt>
      <trkpt lat="46.87002" lon="-71.64357">
        <ele>229.41174316406</ele>
        <time>2016-03-22T14:33:43Z</time>
      </trkpt>
      <trkpt lat="46.87011" lon="-71.64365">
        <ele>228.93115234375</ele>
        <time>2016-03-22T14:33:57Z</time>
      </trkpt>
      <trkpt lat="46.87012" lon="-71.64372">
        <ele>229.41174316406</ele>
        <time>2016-03-22T14:34:01Z</time>
      </trkpt>
      <trkpt lat="46.87012" lon="-71.64376">
        <ele>228.93115234375</ele>
        <time>2016-03-22T14:34:03Z</time>
      </trkpt>
      <trkpt lat="46.87007" lon="-71.64395">
        <ele>229.41174316406</ele>
        <time>2016-03-22T14:34:09Z</time>
      </trkpt>
      <trkpt lat="46.87005" lon="-71.64427">
        <ele>228.93115234375</ele>
        <time>2016-03-22T14:34:25Z</time>
      </trkpt>
      <trkpt lat="46.87011" lon="-71.64444">
        <ele>230.373046875</ele>
        <time>2016-03-22T14:34:38Z</time>
      </trkpt>
      <trkpt lat="46.87011" lon="-71.6445">
        <ele>230.373046875</ele>
        <time>2016-03-22T14:34:41Z</time>
      </trkpt>
      <trkpt lat="46.87017" lon="-71.64462">
        <ele>231.81494140625</ele>
        <time>2016-03-22T14:34:50Z</time>
      </trkpt>
      <trkpt lat="46.87023" lon="-71.64477">
        <ele>230.85375976562</ele>
        <time>2016-03-22T14:35:01Z</time>
      </trkpt>
      <trkpt lat="46.87024" lon="-71.64509">
        <ele>231.33435058594</ele>
        <time>2016-03-22T14:35:16Z</time>
      </trkpt>
      <trkpt lat="46.87023" lon="-71.64535">
        <ele>230.373046875</ele>
        <time>2016-03-22T14:35:30Z</time>
      </trkpt>
      <trkpt lat="46.87025" lon="-71.64547">
        <ele>230.85375976562</ele>
        <time>2016-03-22T14:35:38Z</time>
      </trkpt>
      <trkpt lat="46.87031" lon="-71.6456">
        <ele>231.81494140625</ele>
        <time>2016-03-22T14:35:48Z</time>
      </trkpt>
      <trkpt lat="46.87034" lon="-71.64564">
        <ele>231.81494140625</ele>
        <time>2016-03-22T14:35:52Z</time>
      </trkpt>
      <trkpt lat="46.87038" lon="-71.6457">
        <ele>231.33435058594</ele>
        <time>2016-03-22T14:35:57Z</time>
      </trkpt>
      <trkpt lat="46.87042" lon="-71.64577">
        <ele>231.81494140625</ele>
        <time>2016-03-22T14:36:03Z</time>
      </trkpt>
      <trkpt lat="46.87045" lon="-71.64591">
        <ele>232.29577636719</ele>
        <time>2016-03-22T14:36:10Z</time>
      </trkpt>
      <trkpt lat="46.8704" lon="-71.6462">
        <ele>232.29577636719</ele>
        <time>2016-03-22T14:36:22Z</time>
      </trkpt>
      <trkpt lat="46.87048" lon="-71.64637">
        <ele>231.81494140625</ele>
        <time>2016-03-22T14:36:36Z</time>
      </trkpt>
      <trkpt lat="46.87053" lon="-71.64656">
        <ele>230.85375976562</ele>
        <time>2016-03-22T14:36:50Z</time>
      </trkpt>
      <trkpt lat="46.87054" lon="-71.64677">
        <ele>230.85375976562</ele>
        <time>2016-03-22T14:37:03Z</time>
      </trkpt>
      <trkpt lat="46.87055" lon="-71.64681">
        <ele>230.85375976562</ele>
        <time>2016-03-22T14:37:06Z</time>
      </trkpt>
      <trkpt lat="46.87064" lon="-71.6469">
        <ele>231.33435058594</ele>
        <time>2016-03-22T14:37:18Z</time>
      </trkpt>
      <trkpt lat="46.87074" lon="-71.64701">
        <ele>233.25708007812</ele>
        <time>2016-03-22T14:37:30Z</time>
      </trkpt>
      <trkpt lat="46.87078" lon="-71.64707">
        <ele>234.21838378906</ele>
        <time>2016-03-22T14:37:36Z</time>
      </trkpt>
      <trkpt lat="46.87086" lon="-71.64717">
        <ele>235.1796875</ele>
        <time>2016-03-22T14:37:48Z</time>
      </trkpt>
      <trkpt lat="46.87097" lon="-71.64729">
        <ele>236.62170410156</ele>
        <time>2016-03-22T14:38:05Z</time>
      </trkpt>
      <trkpt lat="46.87105" lon="-71.64744">
        <ele>236.14099121094</ele>
        <time>2016-03-22T14:38:17Z</time>
      </trkpt>
      <trkpt lat="46.87106" lon="-71.6475">
        <ele>236.14099121094</ele>
        <time>2016-03-22T14:38:21Z</time>
      </trkpt>
      <trkpt lat="46.87107" lon="-71.64772">
        <ele>236.14099121094</ele>
        <time>2016-03-22T14:38:36Z</time>
      </trkpt>
      <trkpt lat="46.87113" lon="-71.64795">
        <ele>237.10229492188</ele>
        <time>2016-03-22T14:38:50Z</time>
      </trkpt>
      <trkpt lat="46.87128" lon="-71.64811">
        <ele>235.66027832031</ele>
        <time>2016-03-22T14:39:07Z</time>
      </trkpt>
      <trkpt lat="46.87131" lon="-71.64822">
        <ele>233.25708007812</ele>
        <time>2016-03-22T14:39:20Z</time>
      </trkpt>
      <trkpt lat="46.87127" lon="-71.64835">
        <ele>232.77648925781</ele>
        <time>2016-03-22T14:39:30Z</time>
      </trkpt>
      <trkpt lat="46.87123" lon="-71.64844">
        <ele>229.41174316406</ele>
        <time>2016-03-22T14:39:42Z</time>
      </trkpt>
      <trkpt lat="46.87116" lon="-71.64854">
        <ele>227.48913574219</ele>
        <time>2016-03-22T14:39:49Z</time>
      </trkpt>
      <trkpt lat="46.87111" lon="-71.6486">
        <ele>226.52783203125</ele>
        <time>2016-03-22T14:39:53Z</time>
      </trkpt>
      <trkpt lat="46.87096" lon="-71.64861">
        <ele>224.12451171875</ele>
        <time>2016-03-22T14:40:08Z</time>
      </trkpt>
      <trkpt lat="46.87083" lon="-71.6487">
        <ele>220.75988769531</ele>
        <time>2016-03-22T14:40:20Z</time>
      </trkpt>
      <trkpt lat="46.87077" lon="-71.64875">
        <ele>220.27917480469</ele>
        <time>2016-03-22T14:40:28Z</time>
      </trkpt>
      <trkpt lat="46.87071" lon="-71.6488">
        <ele>217.39538574219</ele>
        <time>2016-03-22T14:40:36Z</time>
      </trkpt>
      <trkpt lat="46.87058" lon="-71.64873">
        <ele>216.43395996094</ele>
        <time>2016-03-22T14:40:50Z</time>
      </trkpt>
      <trkpt lat="46.87053" lon="-71.64865">
        <ele>214.03063964844</ele>
        <time>2016-03-22T14:41:00Z</time>
      </trkpt>
      <trkpt lat="46.87042" lon="-71.64866">
        <ele>212.10803222656</ele>
        <time>2016-03-22T14:41:18Z</time>
      </trkpt>
      <trkpt lat="46.87035" lon="-71.64869">
        <ele>209.22412109375</ele>
        <time>2016-03-22T14:41:34Z</time>
      </trkpt>
      <trkpt lat="46.87029" lon="-71.64879">
        <ele>208.74340820312</ele>
        <time>2016-03-22T14:41:50Z</time>
      </trkpt>
      <trkpt lat="46.87025" lon="-71.64891">
        <ele>205.37878417969</ele>
        <time>2016-03-22T14:42:04Z</time>
      </trkpt>
      <trkpt lat="46.87019" lon="-71.64919">
        <ele>205.37878417969</ele>
        <time>2016-03-22T14:42:19Z</time>
      </trkpt>
      <trkpt lat="46.87019" lon="-71.64944">
        <ele>204.89807128906</ele>
        <time>2016-03-22T14:42:33Z</time>
      </trkpt>
      <trkpt lat="46.87019" lon="-71.64972">
        <ele>204.41748046875</ele>
        <time>2016-03-22T14:42:49Z</time>
      </trkpt>
      <trkpt lat="46.87021" lon="-71.6498">
        <ele>204.89807128906</ele>
        <time>2016-03-22T14:42:54Z</time>
      </trkpt>
      <trkpt lat="46.87032" lon="-71.64991">
        <ele>205.85949707031</ele>
        <time>2016-03-22T14:43:08Z</time>
      </trkpt>
      <trkpt lat="46.87041" lon="-71.65006">
        <ele>206.34008789062</ele>
        <time>2016-03-22T14:43:23Z</time>
      </trkpt>
      <trkpt lat="46.87043" lon="-71.65011">
        <ele>206.34008789062</ele>
        <time>2016-03-22T14:43:26Z</time>
      </trkpt>
      <trkpt lat="46.8705" lon="-71.6503">
        <ele>206.82067871094</ele>
        <time>2016-03-22T14:43:39Z</time>
      </trkpt>
      <trkpt lat="46.87056" lon="-71.65049">
        <ele>206.82067871094</ele>
        <time>2016-03-22T14:43:50Z</time>
      </trkpt>
      <trkpt lat="46.87064" lon="-71.6507">
        <ele>207.30139160156</ele>
        <time>2016-03-22T14:44:03Z</time>
      </trkpt>
      <trkpt lat="46.87063" lon="-71.65087">
        <ele>207.78210449219</ele>
        <time>2016-03-22T14:44:19Z</time>
      </trkpt>
      <trkpt lat="46.87065" lon="-71.65107">
        <ele>208.74340820312</ele>
        <time>2016-03-22T14:44:30Z</time>
      </trkpt>
      <trkpt lat="46.8708" lon="-71.6511">
        <ele>209.22412109375</ele>
        <time>2016-03-22T14:44:45Z</time>
      </trkpt>
      <trkpt lat="46.87087" lon="-71.65112">
        <ele>209.70483398438</ele>
        <time>2016-03-22T14:44:51Z</time>
      </trkpt>
      <trkpt lat="46.87102" lon="-71.65114">
        <ele>211.14672851562</ele>
        <time>2016-03-22T14:45:05Z</time>
      </trkpt>
      <trkpt lat="46.87105" lon="-71.65119">
        <ele>212.10803222656</ele>
        <time>2016-03-22T14:45:10Z</time>
      </trkpt>
      <trkpt lat="46.87111" lon="-71.65145">
        <ele>213.0693359375</ele>
        <time>2016-03-22T14:45:27Z</time>
      </trkpt>
      <trkpt lat="46.8711" lon="-71.65162">
        <ele>213.0693359375</ele>
        <time>2016-03-22T14:45:42Z</time>
      </trkpt>
      <trkpt lat="46.87104" lon="-71.65189">
        <ele>213.0693359375</ele>
        <time>2016-03-22T14:45:59Z</time>
      </trkpt>
      <trkpt lat="46.87103" lon="-71.65212">
        <ele>214.99194335938</ele>
        <time>2016-03-22T14:46:12Z</time>
      </trkpt>
      <trkpt lat="46.87106" lon="-71.65237">
        <ele>214.51123046875</ele>
        <time>2016-03-22T14:46:26Z</time>
      </trkpt>
      <trkpt lat="46.87107" lon="-71.65242">
        <ele>214.99194335938</ele>
        <time>2016-03-22T14:46:29Z</time>
      </trkpt>
      <trkpt lat="46.87109" lon="-71.6525">
        <ele>215.47265625</ele>
        <time>2016-03-22T14:46:34Z</time>
      </trkpt>
      <trkpt lat="46.87116" lon="-71.65278">
        <ele>215.47265625</ele>
        <time>2016-03-22T14:46:54Z</time>
      </trkpt>
      <trkpt lat="46.87116" lon="-71.65279">
        <ele>214.51123046875</ele>
        <time>2016-03-22T14:46:56Z</time>
      </trkpt>
      <trkpt lat="46.87123" lon="-71.65287">
        <ele>213.55004882812</ele>
        <time>2016-03-22T14:47:29Z</time>
      </trkpt>
      <trkpt lat="46.87125" lon="-71.65299">
        <ele>215.47265625</ele>
        <time>2016-03-22T14:47:46Z</time>
      </trkpt>
      <trkpt lat="46.87128" lon="-71.65325">
        <ele>215.95324707031</ele>
        <time>2016-03-22T14:48:02Z</time>
      </trkpt>
      <trkpt lat="46.87127" lon="-71.65347">
        <ele>215.47265625</ele>
        <time>2016-03-22T14:48:24Z</time>
      </trkpt>
      <trkpt lat="46.87128" lon="-71.65351">
        <ele>215.47265625</ele>
        <time>2016-03-22T14:48:27Z</time>
      </trkpt>
      <trkpt lat="46.87139" lon="-71.6537">
        <ele>215.95324707031</ele>
        <time>2016-03-22T14:48:43Z</time>
      </trkpt>
      <trkpt lat="46.87153" lon="-71.6539">
        <ele>216.91467285156</ele>
        <time>2016-03-22T14:49:01Z</time>
      </trkpt>
      <trkpt lat="46.87158" lon="-71.65396">
        <ele>217.39538574219</ele>
        <time>2016-03-22T14:49:06Z</time>
      </trkpt>
      <trkpt lat="46.87167" lon="-71.6542">
        <ele>219.31799316406</ele>
        <time>2016-03-22T14:49:23Z</time>
      </trkpt>
      <trkpt lat="46.87171" lon="-71.65443">
        <ele>220.27917480469</ele>
        <time>2016-03-22T14:49:40Z</time>
      </trkpt>
      <trkpt lat="46.87175" lon="-71.65461">
        <ele>221.72119140625</ele>
        <time>2016-03-22T14:49:55Z</time>
      </trkpt>
      <trkpt lat="46.87182" lon="-71.6548">
        <ele>222.20178222656</ele>
        <time>2016-03-22T14:50:20Z</time>
      </trkpt>
      <trkpt lat="46.87191" lon="-71.65495">
        <ele>223.16320800781</ele>
        <time>2016-03-22T14:50:36Z</time>
      </trkpt>
      <trkpt lat="46.87192" lon="-71.6551">
        <ele>223.64379882812</ele>
        <time>2016-03-22T14:50:51Z</time>
      </trkpt>
      <trkpt lat="46.87192" lon="-71.65511">
        <ele>223.64379882812</ele>
        <time>2016-03-22T14:50:52Z</time>
      </trkpt>
      <trkpt lat="46.87196" lon="-71.65534">
        <ele>224.60522460938</ele>
        <time>2016-03-22T14:51:08Z</time>
      </trkpt>
      <trkpt lat="46.87205" lon="-71.65554">
        <ele>225.56652832031</ele>
        <time>2016-03-22T14:51:24Z</time>
      </trkpt>
      <trkpt lat="46.87213" lon="-71.65558">
        <ele>226.04711914062</ele>
        <time>2016-03-22T14:51:31Z</time>
      </trkpt>
      <trkpt lat="46.87232" lon="-71.65566">
        <ele>227.00854492188</ele>
        <time>2016-03-22T14:51:47Z</time>
      </trkpt>
      <trkpt lat="46.87246" lon="-71.65575">
        <ele>227.48913574219</ele>
        <time>2016-03-22T14:52:04Z</time>
      </trkpt>
      <trkpt lat="46.87258" lon="-71.65577">
        <ele>228.93115234375</ele>
        <time>2016-03-22T14:52:21Z</time>
      </trkpt>
      <trkpt lat="46.87268" lon="-71.65578">
        <ele>228.45043945312</ele>
        <time>2016-03-22T14:52:39Z</time>
      </trkpt>
      <trkpt lat="46.87273" lon="-71.65584">
        <ele>229.41174316406</ele>
        <time>2016-03-22T14:52:55Z</time>
      </trkpt>
      <trkpt lat="46.8728" lon="-71.65593">
        <ele>229.89233398438</ele>
        <time>2016-03-22T14:53:13Z</time>
      </trkpt>
      <trkpt lat="46.87286" lon="-71.65605">
        <ele>229.89233398438</ele>
        <time>2016-03-22T14:53:29Z</time>
      </trkpt>
      <trkpt lat="46.87301" lon="-71.65612">
        <ele>229.89233398438</ele>
        <time>2016-03-22T14:53:43Z</time>
      </trkpt>
      <trkpt lat="46.87315" lon="-71.65621">
        <ele>229.41174316406</ele>
        <time>2016-03-22T14:53:58Z</time>
      </trkpt>
      <trkpt lat="46.87333" lon="-71.65624">
        <ele>229.89233398438</ele>
        <time>2016-03-22T14:54:13Z</time>
      </trkpt>
      <trkpt lat="46.8734" lon="-71.65636">
        <ele>229.89233398438</ele>
        <time>2016-03-22T14:54:27Z</time>
      </trkpt>
      <trkpt lat="46.87351" lon="-71.65656">
        <ele>231.81494140625</ele>
        <time>2016-03-22T14:54:41Z</time>
      </trkpt>
      <trkpt lat="46.87363" lon="-71.65673">
        <ele>232.77648925781</ele>
        <time>2016-03-22T14:54:57Z</time>
      </trkpt>
      <trkpt lat="46.87377" lon="-71.65683">
        <ele>233.25708007812</ele>
        <time>2016-03-22T14:55:13Z</time>
      </trkpt>
      <trkpt lat="46.87395" lon="-71.65697">
        <ele>232.77648925781</ele>
        <time>2016-03-22T14:55:29Z</time>
      </trkpt>
      <trkpt lat="46.87409" lon="-71.65709">
        <ele>233.25708007812</ele>
        <time>2016-03-22T14:55:44Z</time>
      </trkpt>
      <trkpt lat="46.87421" lon="-71.65724">
        <ele>234.69909667969</ele>
        <time>2016-03-22T14:55:58Z</time>
      </trkpt>
      <trkpt lat="46.87434" lon="-71.65743">
        <ele>235.1796875</ele>
        <time>2016-03-22T14:56:14Z</time>
      </trkpt>
      <trkpt lat="46.87444" lon="-71.65759">
        <ele>236.14099121094</ele>
        <time>2016-03-22T14:56:28Z</time>
      </trkpt>
      <trkpt lat="46.87451" lon="-71.65765">
        <ele>236.14099121094</ele>
        <time>2016-03-22T14:56:36Z</time>
      </trkpt>
      <trkpt lat="46.87467" lon="-71.65781">
        <ele>236.62170410156</ele>
        <time>2016-03-22T14:56:51Z</time>
      </trkpt>
      <trkpt lat="46.87481" lon="-71.65786">
        <ele>238.06359863281</ele>
        <time>2016-03-22T14:57:06Z</time>
      </trkpt>
      <trkpt lat="46.87486" lon="-71.65793">
        <ele>237.58288574219</ele>
        <time>2016-03-22T14:57:24Z</time>
      </trkpt>
      <trkpt lat="46.87492" lon="-71.65806">
        <ele>239.02490234375</ele>
        <time>2016-03-22T14:57:39Z</time>
      </trkpt>
      <trkpt lat="46.87501" lon="-71.6582">
        <ele>240.94763183594</ele>
        <time>2016-03-22T14:57:54Z</time>
      </trkpt>
      <trkpt lat="46.87509" lon="-71.6584">
        <ele>244.31225585938</ele>
        <time>2016-03-22T14:58:10Z</time>
      </trkpt>
      <trkpt lat="46.87515" lon="-71.65854">
        <ele>245.2734375</ele>
        <time>2016-03-22T14:58:24Z</time>
      </trkpt>
      <trkpt lat="46.8752" lon="-71.65871">
        <ele>245.75415039062</ele>
        <time>2016-03-22T14:58:39Z</time>
      </trkpt>
      <trkpt lat="46.87523" lon="-71.65883">
        <ele>246.23486328125</ele>
        <time>2016-03-22T14:58:51Z</time>
      </trkpt>
      <trkpt lat="46.87526" lon="-71.65904">
        <ele>247.19604492188</ele>
        <time>2016-03-22T14:59:04Z</time>
      </trkpt>
      <trkpt lat="46.87525" lon="-71.65916">
        <ele>246.71545410156</ele>
        <time>2016-03-22T14:59:18Z</time>
      </trkpt>
      <trkpt lat="46.87522" lon="-71.65929">
        <ele>246.71545410156</ele>
        <time>2016-03-22T14:59:41Z</time>
      </trkpt>
      <trkpt lat="46.87529" lon="-71.65951">
        <ele>246.71545410156</ele>
        <time>2016-03-22T14:59:57Z</time>
      </trkpt>
      <trkpt lat="46.87535" lon="-71.65974">
        <ele>246.71545410156</ele>
        <time>2016-03-22T15:00:13Z</time>
      </trkpt>
      <trkpt lat="46.87546" lon="-71.65997">
        <ele>247.19604492188</ele>
        <time>2016-03-22T15:00:28Z</time>
      </trkpt>
      <trkpt lat="46.87554" lon="-71.66015">
        <ele>247.19604492188</ele>
        <time>2016-03-22T15:00:39Z</time>
      </trkpt>
      <trkpt lat="46.8756" lon="-71.66031">
        <ele>247.19604492188</ele>
        <time>2016-03-22T15:00:48Z</time>
      </trkpt>
      <trkpt lat="46.87558" lon="-71.66052">
        <ele>246.23486328125</ele>
        <time>2016-03-22T15:01:02Z</time>
      </trkpt>
      <trkpt lat="46.87554" lon="-71.66068">
        <ele>246.23486328125</ele>
        <time>2016-03-22T15:01:17Z</time>
      </trkpt>
      <trkpt lat="46.87552" lon="-71.66087">
        <ele>245.75415039062</ele>
        <time>2016-03-22T15:01:35Z</time>
      </trkpt>
      <trkpt lat="46.87554" lon="-71.66107">
        <ele>244.31225585938</ele>
        <time>2016-03-22T15:01:50Z</time>
      </trkpt>
      <trkpt lat="46.87554" lon="-71.66113">
        <ele>245.2734375</ele>
        <time>2016-03-22T15:01:52Z</time>
      </trkpt>
      <trkpt lat="46.87556" lon="-71.66135">
        <ele>246.23486328125</ele>
        <time>2016-03-22T15:02:08Z</time>
      </trkpt>
      <trkpt lat="46.87558" lon="-71.66137">
        <ele>246.23486328125</ele>
        <time>2016-03-22T15:02:26Z</time>
      </trkpt>
      <trkpt lat="46.87557" lon="-71.66134">
        <ele>245.2734375</ele>
        <time>2016-03-22T15:02:37Z</time>
      </trkpt>
      <trkpt lat="46.87547" lon="-71.66122">
        <ele>245.2734375</ele>
        <time>2016-03-22T15:02:57Z</time>
      </trkpt>
      <trkpt lat="46.87548" lon="-71.66122">
        <ele>245.75415039062</ele>
        <time>2016-03-22T15:03:31Z</time>
      </trkpt>
      <trkpt lat="46.87552" lon="-71.66128">
        <ele>243.83154296875</ele>
        <time>2016-03-22T15:03:44Z</time>
      </trkpt>
      <trkpt lat="46.87556" lon="-71.66133">
        <ele>244.31225585938</ele>
        <time>2016-03-22T15:04:00Z</time>
      </trkpt>
      <trkpt lat="46.87556" lon="-71.66135">
        <ele>244.79284667969</ele>
        <time>2016-03-22T15:04:27Z</time>
      </trkpt>
      <trkpt lat="46.87558" lon="-71.66139">
        <ele>245.75415039062</ele>
        <time>2016-03-22T15:04:31Z</time>
      </trkpt>
      <trkpt lat="46.87558" lon="-71.66133">
        <ele>245.2734375</ele>
        <time>2016-03-22T15:04:46Z</time>
      </trkpt>
      <trkpt lat="46.8756" lon="-71.66138">
        <ele>246.23486328125</ele>
        <time>2016-03-22T15:05:13Z</time>
      </trkpt>
      <trkpt lat="46.87559" lon="-71.66133">
        <ele>245.75415039062</ele>
        <time>2016-03-22T15:05:28Z</time>
      </trkpt>
      <trkpt lat="46.8756" lon="-71.66133">
        <ele>243.83154296875</ele>
        <time>2016-03-22T15:05:39Z</time>
      </trkpt>
      <trkpt lat="46.87563" lon="-71.66128">
        <ele>244.79284667969</ele>
        <time>2016-03-22T15:05:55Z</time>
      </trkpt>
      <trkpt lat="46.87575" lon="-71.66119">
        <ele>244.31225585938</ele>
        <time>2016-03-22T15:06:10Z</time>
      </trkpt>
      <trkpt lat="46.87591" lon="-71.66106">
        <ele>243.83154296875</ele>
        <time>2016-03-22T15:06:28Z</time>
      </trkpt>
      <trkpt lat="46.87603" lon="-71.66093">
        <ele>243.83154296875</ele>
        <time>2016-03-22T15:06:43Z</time>
      </trkpt>
      <trkpt lat="46.87625" lon="-71.66088">
        <ele>243.83154296875</ele>
        <time>2016-03-22T15:07:02Z</time>
      </trkpt>
      <trkpt lat="46.87633" lon="-71.6609">
        <ele>244.31225585938</ele>
        <time>2016-03-22T15:07:12Z</time>
      </trkpt>
      <trkpt lat="46.87646" lon="-71.66091">
        <ele>244.31225585938</ele>
        <time>2016-03-22T15:07:30Z</time>
      </trkpt>
      <trkpt lat="46.8765" lon="-71.66091">
        <ele>244.31225585938</ele>
        <time>2016-03-22T15:07:53Z</time>
      </trkpt>
      <trkpt lat="46.87651" lon="-71.66085">
        <ele>244.79284667969</ele>
        <time>2016-03-22T15:08:43Z</time>
      </trkpt>
      <trkpt lat="46.87649" lon="-71.6609">
        <ele>243.83154296875</ele>
        <time>2016-03-22T15:09:06Z</time>
      </trkpt>
      <trkpt lat="46.87649" lon="-71.66095">
        <ele>244.79284667969</ele>
        <time>2016-03-22T15:09:22Z</time>
      </trkpt>
      <trkpt lat="46.87657" lon="-71.66112">
        <ele>243.83154296875</ele>
        <time>2016-03-22T15:09:37Z</time>
      </trkpt>
      <trkpt lat="46.87666" lon="-71.6613">
        <ele>242.3896484375</ele>
        <time>2016-03-22T15:09:54Z</time>
      </trkpt>
      <trkpt lat="46.87672" lon="-71.66137">
        <ele>242.87023925781</ele>
        <time>2016-03-22T15:10:10Z</time>
      </trkpt>
      <trkpt lat="46.87688" lon="-71.66145">
        <ele>243.35083007812</ele>
        <time>2016-03-22T15:10:24Z</time>
      </trkpt>
      <trkpt lat="46.87702" lon="-71.66155">
        <ele>243.83154296875</ele>
        <time>2016-03-22T15:10:37Z</time>
      </trkpt>
      <trkpt lat="46.87715" lon="-71.6616">
        <ele>244.31225585938</ele>
        <time>2016-03-22T15:10:52Z</time>
      </trkpt>
      <trkpt lat="46.87721" lon="-71.66161">
        <ele>243.35083007812</ele>
        <time>2016-03-22T15:10:58Z</time>
      </trkpt>
      <trkpt lat="46.87723" lon="-71.66164">
        <ele>243.35083007812</ele>
        <time>2016-03-22T15:11:01Z</time>
      </trkpt>
      <trkpt lat="46.87727" lon="-71.66172">
        <ele>243.83154296875</ele>
        <time>2016-03-22T15:11:07Z</time>
      </trkpt>
      <trkpt lat="46.8773" lon="-71.66179">
        <ele>243.83154296875</ele>
        <time>2016-03-22T15:11:12Z</time>
      </trkpt>
      <trkpt lat="46.8774" lon="-71.66207">
        <ele>243.35083007812</ele>
        <time>2016-03-22T15:11:31Z</time>
      </trkpt>
      <trkpt lat="46.87746" lon="-71.66236">
        <ele>242.87023925781</ele>
        <time>2016-03-22T15:11:49Z</time>
      </trkpt>
      <trkpt lat="46.87746" lon="-71.66248">
        <ele>242.3896484375</ele>
        <time>2016-03-22T15:11:56Z</time>
      </trkpt>
      <trkpt lat="46.87753" lon="-71.66272">
        <ele>242.3896484375</ele>
        <time>2016-03-22T15:12:11Z</time>
      </trkpt>
      <trkpt lat="46.87765" lon="-71.66302">
        <ele>241.90893554688</ele>
        <time>2016-03-22T15:12:30Z</time>
      </trkpt>
      <trkpt lat="46.8777" lon="-71.66323">
        <ele>241.90893554688</ele>
        <time>2016-03-22T15:12:46Z</time>
      </trkpt>
      <trkpt lat="46.87776" lon="-71.66349">
        <ele>241.42822265625</ele>
        <time>2016-03-22T15:13:03Z</time>
      </trkpt>
      <trkpt lat="46.87779" lon="-71.66359">
        <ele>240.94763183594</ele>
        <time>2016-03-22T15:13:12Z</time>
      </trkpt>
      <trkpt lat="46.8779" lon="-71.66374">
        <ele>242.3896484375</ele>
        <time>2016-03-22T15:13:27Z</time>
      </trkpt>
      <trkpt lat="46.87793" lon="-71.66383">
        <ele>240.94763183594</ele>
        <time>2016-03-22T15:13:33Z</time>
      </trkpt>
      <trkpt lat="46.87803" lon="-71.66414">
        <ele>240.46704101562</ele>
        <time>2016-03-22T15:13:54Z</time>
      </trkpt>
      <trkpt lat="46.87811" lon="-71.66434">
        <ele>240.46704101562</ele>
        <time>2016-03-22T15:14:08Z</time>
      </trkpt>
      <trkpt lat="46.87822" lon="-71.66453">
        <ele>243.35083007812</ele>
        <time>2016-03-22T15:14:24Z</time>
      </trkpt>
      <trkpt lat="46.87836" lon="-71.66464">
        <ele>243.35083007812</ele>
        <time>2016-03-22T15:14:38Z</time>
      </trkpt>
      <trkpt lat="46.8785" lon="-71.66472">
        <ele>246.23486328125</ele>
        <time>2016-03-22T15:14:52Z</time>
      </trkpt>
      <trkpt lat="46.87865" lon="-71.66481">
        <ele>246.71545410156</ele>
        <time>2016-03-22T15:15:05Z</time>
      </trkpt>
      <trkpt lat="46.87879" lon="-71.6648">
        <ele>248.15759277344</ele>
        <time>2016-03-22T15:15:20Z</time>
      </trkpt>
      <trkpt lat="46.87886" lon="-71.66476">
        <ele>249.11877441406</ele>
        <time>2016-03-22T15:15:30Z</time>
      </trkpt>
      <trkpt lat="46.87894" lon="-71.66468">
        <ele>249.59948730469</ele>
        <time>2016-03-22T15:15:39Z</time>
      </trkpt>
      <trkpt lat="46.87909" lon="-71.66454">
        <ele>248.63818359375</ele>
        <time>2016-03-22T15:15:55Z</time>
      </trkpt>
      <trkpt lat="46.87924" lon="-71.66446">
        <ele>248.63818359375</ele>
        <time>2016-03-22T15:16:08Z</time>
      </trkpt>
      <trkpt lat="46.87943" lon="-71.66435">
        <ele>247.6767578125</ele>
        <time>2016-03-22T15:16:25Z</time>
      </trkpt>
      <trkpt lat="46.8795" lon="-71.66431">
        <ele>247.6767578125</ele>
        <time>2016-03-22T15:16:31Z</time>
      </trkpt>
      <trkpt lat="46.87969" lon="-71.66432">
        <ele>246.71545410156</ele>
        <time>2016-03-22T15:16:48Z</time>
      </trkpt>
      <trkpt lat="46.87987" lon="-71.66444">
        <ele>245.2734375</ele>
        <time>2016-03-22T15:17:05Z</time>
      </trkpt>
      <trkpt lat="46.8799" lon="-71.66447">
        <ele>244.79284667969</ele>
        <time>2016-03-22T15:17:08Z</time>
      </trkpt>
      <trkpt lat="46.88004" lon="-71.66464">
        <ele>243.35083007812</ele>
        <time>2016-03-22T15:17:24Z</time>
      </trkpt>
      <trkpt lat="46.88011" lon="-71.6648">
        <ele>244.31225585938</ele>
        <time>2016-03-22T15:17:38Z</time>
      </trkpt>
      <trkpt lat="46.88016" lon="-71.66492">
        <ele>240.94763183594</ele>
        <time>2016-03-22T15:17:48Z</time>
      </trkpt>
      <trkpt lat="46.88017" lon="-71.665">
        <ele>240.46704101562</ele>
        <time>2016-03-22T15:17:53Z</time>
      </trkpt>
      <trkpt lat="46.88019" lon="-71.66509">
        <ele>240.46704101562</ele>
        <time>2016-03-22T15:17:58Z</time>
      </trkpt>
      <trkpt lat="46.88031" lon="-71.66536">
        <ele>239.50549316406</ele>
        <time>2016-03-22T15:18:16Z</time>
      </trkpt>
      <trkpt lat="46.88032" lon="-71.66551">
        <ele>239.50549316406</ele>
        <time>2016-03-22T15:18:31Z</time>
      </trkpt>
      <trkpt lat="46.88036" lon="-71.66572">
        <ele>239.50549316406</ele>
        <time>2016-03-22T15:18:41Z</time>
      </trkpt>
      <trkpt lat="46.88044" lon="-71.66591">
        <ele>239.02490234375</ele>
        <time>2016-03-22T15:18:53Z</time>
      </trkpt>
      <trkpt lat="46.88053" lon="-71.66597">
        <ele>239.02490234375</ele>
        <time>2016-03-22T15:19:00Z</time>
      </trkpt>
      <trkpt lat="46.8806" lon="-71.66608">
        <ele>239.02490234375</ele>
        <time>2016-03-22T15:19:09Z</time>
      </trkpt>
      <trkpt lat="46.88066" lon="-71.66636">
        <ele>239.50549316406</ele>
        <time>2016-03-22T15:19:28Z</time>
      </trkpt>
      <trkpt lat="46.88071" lon="-71.66662">
        <ele>239.98620605469</ele>
        <time>2016-03-22T15:19:44Z</time>
      </trkpt>
      <trkpt lat="46.88086" lon="-71.66673">
        <ele>239.50549316406</ele>
        <time>2016-03-22T15:19:59Z</time>
      </trkpt>
      <trkpt lat="46.88088" lon="-71.66673">
        <ele>239.98620605469</ele>
        <time>2016-03-22T15:20:01Z</time>
      </trkpt>
      <trkpt lat="46.88108" lon="-71.66661">
        <ele>240.46704101562</ele>
        <time>2016-03-22T15:20:19Z</time>
      </trkpt>
      <trkpt lat="46.88126" lon="-71.66637">
        <ele>239.98620605469</ele>
        <time>2016-03-22T15:20:39Z</time>
      </trkpt>
      <trkpt lat="46.88133" lon="-71.66608">
        <ele>240.46704101562</ele>
        <time>2016-03-22T15:20:56Z</time>
      </trkpt>
      <trkpt lat="46.88139" lon="-71.66583">
        <ele>239.98620605469</ele>
        <time>2016-03-22T15:21:12Z</time>
      </trkpt>
      <trkpt lat="46.8815" lon="-71.66555">
        <ele>239.98620605469</ele>
        <time>2016-03-22T15:21:32Z</time>
      </trkpt>
      <trkpt lat="46.88154" lon="-71.66535">
        <ele>242.87023925781</ele>
        <time>2016-03-22T15:21:46Z</time>
      </trkpt>
      <trkpt lat="46.88157" lon="-71.66517">
        <ele>244.31225585938</ele>
        <time>2016-03-22T15:22:01Z</time>
      </trkpt>
      <trkpt lat="46.88161" lon="-71.66511">
        <ele>243.83154296875</ele>
        <time>2016-03-22T15:22:31Z</time>
      </trkpt>
      <trkpt lat="46.88159" lon="-71.66512">
        <ele>243.83154296875</ele>
        <time>2016-03-22T15:22:47Z</time>
      </trkpt>
      <trkpt lat="46.88158" lon="-71.66499">
        <ele>244.31225585938</ele>
        <time>2016-03-22T15:23:07Z</time>
      </trkpt>
      <trkpt lat="46.88155" lon="-71.66481">
        <ele>247.6767578125</ele>
        <time>2016-03-22T15:23:22Z</time>
      </trkpt>
      <trkpt lat="46.88163" lon="-71.66486">
        <ele>249.11877441406</ele>
        <time>2016-03-22T15:23:37Z</time>
      </trkpt>
      <trkpt lat="46.88173" lon="-71.66494">
        <ele>251.04138183594</ele>
        <time>2016-03-22T15:23:48Z</time>
      </trkpt>
      <trkpt lat="46.88181" lon="-71.66494">
        <ele>253.92541503906</ele>
        <time>2016-03-22T15:24:00Z</time>
      </trkpt>
      <trkpt lat="46.8818" lon="-71.66472">
        <ele>255.84802246094</ele>
        <time>2016-03-22T15:24:18Z</time>
      </trkpt>
      <trkpt lat="46.8818" lon="-71.66447">
        <ele>256.80932617188</ele>
        <time>2016-03-22T15:24:36Z</time>
      </trkpt>
      <trkpt lat="46.88177" lon="-71.66427">
        <ele>259.693359375</ele>
        <time>2016-03-22T15:24:51Z</time>
      </trkpt>
      <trkpt lat="46.8817" lon="-71.66402">
        <ele>261.61596679688</ele>
        <time>2016-03-22T15:25:08Z</time>
      </trkpt>
      <trkpt lat="46.88166" lon="-71.66375">
        <ele>264.98059082031</ele>
        <time>2016-03-22T15:25:27Z</time>
      </trkpt>
      <trkpt lat="46.88166" lon="-71.66366">
        <ele>266.90319824219</ele>
        <time>2016-03-22T15:25:34Z</time>
      </trkpt>
      <trkpt lat="46.88161" lon="-71.66344">
        <ele>266.42248535156</ele>
        <time>2016-03-22T15:25:47Z</time>
      </trkpt>
      <trkpt lat="46.88159" lon="-71.66331">
        <ele>266.90319824219</ele>
        <time>2016-03-22T15:25:54Z</time>
      </trkpt>
      <trkpt lat="46.8815" lon="-71.66302">
        <ele>267.38391113281</ele>
        <time>2016-03-22T15:26:12Z</time>
      </trkpt>
      <trkpt lat="46.8814" lon="-71.66277">
        <ele>265.94189453125</ele>
        <time>2016-03-22T15:26:29Z</time>
      </trkpt>
      <trkpt lat="46.88136" lon="-71.66265">
        <ele>265.46130371094</ele>
        <time>2016-03-22T15:26:44Z</time>
      </trkpt>
      <trkpt lat="46.88136" lon="-71.66247">
        <ele>266.90319824219</ele>
        <time>2016-03-22T15:26:58Z</time>
      </trkpt>
      <trkpt lat="46.88131" lon="-71.66225">
        <ele>268.34509277344</ele>
        <time>2016-03-22T15:27:13Z</time>
      </trkpt>
      <trkpt lat="46.88118" lon="-71.66202">
        <ele>267.86450195312</ele>
        <time>2016-03-22T15:27:30Z</time>
      </trkpt>
      <trkpt lat="46.88113" lon="-71.66192">
        <ele>268.34509277344</ele>
        <time>2016-03-22T15:27:38Z</time>
      </trkpt>
      <trkpt lat="46.88104" lon="-71.66161">
        <ele>268.34509277344</ele>
        <time>2016-03-22T15:27:56Z</time>
      </trkpt>
      <trkpt lat="46.88097" lon="-71.66144">
        <ele>266.90319824219</ele>
        <time>2016-03-22T15:28:07Z</time>
      </trkpt>
      <trkpt lat="46.88091" lon="-71.66127">
        <ele>266.42248535156</ele>
        <time>2016-03-22T15:28:19Z</time>
      </trkpt>
      <trkpt lat="46.88089" lon="-71.66118">
        <ele>266.42248535156</ele>
        <time>2016-03-22T15:28:25Z</time>
      </trkpt>
      <trkpt lat="46.88082" lon="-71.66094">
        <ele>263.05786132812</ele>
        <time>2016-03-22T15:28:40Z</time>
      </trkpt>
      <trkpt lat="46.88072" lon="-71.66068">
        <ele>260.65454101562</ele>
        <time>2016-03-22T15:29:00Z</time>
      </trkpt>
      <trkpt lat="46.88063" lon="-71.66069">
        <ele>261.61596679688</ele>
        <time>2016-03-22T15:29:24Z</time>
      </trkpt>
      <trkpt lat="46.88062" lon="-71.66061">
        <ele>260.17395019531</ele>
        <time>2016-03-22T15:29:44Z</time>
      </trkpt>
      <trkpt lat="46.88059" lon="-71.66032">
        <ele>258.73193359375</ele>
        <time>2016-03-22T15:30:00Z</time>
      </trkpt>
      <trkpt lat="46.88051" lon="-71.66008">
        <ele>255.36730957031</ele>
        <time>2016-03-22T15:30:15Z</time>
      </trkpt>
      <trkpt lat="46.88038" lon="-71.65994">
        <ele>253.44470214844</ele>
        <time>2016-03-22T15:30:30Z</time>
      </trkpt>
      <trkpt lat="46.88027" lon="-71.65984">
        <ele>252.4833984375</ele>
        <time>2016-03-22T15:30:46Z</time>
      </trkpt>
      <trkpt lat="46.88012" lon="-71.6597">
        <ele>254.88659667969</ele>
        <time>2016-03-22T15:31:02Z</time>
      </trkpt>
      <trkpt lat="46.88011" lon="-71.65967">
        <ele>255.36730957031</ele>
        <time>2016-03-22T15:31:05Z</time>
      </trkpt>
      <trkpt lat="46.88001" lon="-71.65945">
        <ele>253.44470214844</ele>
        <time>2016-03-22T15:31:20Z</time>
      </trkpt>
      <trkpt lat="46.87984" lon="-71.65927">
        <ele>251.52209472656</ele>
        <time>2016-03-22T15:31:38Z</time>
      </trkpt>
      <trkpt lat="46.87976" lon="-71.65917">
        <ele>248.15759277344</ele>
        <time>2016-03-22T15:31:50Z</time>
      </trkpt>
      <trkpt lat="46.8796" lon="-71.65897">
        <ele>244.79284667969</ele>
        <time>2016-03-22T15:32:07Z</time>
      </trkpt>
      <trkpt lat="46.87959" lon="-71.65895">
        <ele>244.31225585938</ele>
        <time>2016-03-22T15:32:09Z</time>
      </trkpt>
      <trkpt lat="46.87949" lon="-71.65887">
        <ele>240.94763183594</ele>
        <time>2016-03-22T15:32:19Z</time>
      </trkpt>
      <trkpt lat="46.87935" lon="-71.65875">
        <ele>238.54431152344</ele>
        <time>2016-03-22T15:32:32Z</time>
      </trkpt>
      <trkpt lat="46.8793" lon="-71.65876">
        <ele>236.62170410156</ele>
        <time>2016-03-22T15:32:37Z</time>
      </trkpt>
      <trkpt lat="46.87927" lon="-71.65878">
        <ele>235.66027832031</ele>
        <time>2016-03-22T15:32:40Z</time>
      </trkpt>
      <trkpt lat="46.87914" lon="-71.65883">
        <ele>232.29577636719</ele>
        <time>2016-03-22T15:32:51Z</time>
      </trkpt>
      <trkpt lat="46.87894" lon="-71.65882">
        <ele>231.33435058594</ele>
        <time>2016-03-22T15:33:07Z</time>
      </trkpt>
      <trkpt lat="46.87873" lon="-71.65872">
        <ele>231.33435058594</ele>
        <time>2016-03-22T15:33:25Z</time>
      </trkpt>
      <trkpt lat="46.87863" lon="-71.65866">
        <ele>229.41174316406</ele>
        <time>2016-03-22T15:33:43Z</time>
      </trkpt>
      <trkpt lat="46.87852" lon="-71.65862">
        <ele>226.04711914062</ele>
        <time>2016-03-22T15:33:59Z</time>
      </trkpt>
      <trkpt lat="46.87852" lon="-71.65862">
        <ele>226.04711914062</ele>
        <time>2016-03-22T15:34:00Z</time>
      </trkpt>
      <trkpt lat="46.87845" lon="-71.65866">
        <ele>225.0859375</ele>
        <time>2016-03-22T15:34:06Z</time>
      </trkpt>
      <trkpt lat="46.8784" lon="-71.65872">
        <ele>224.60522460938</ele>
        <time>2016-03-22T15:34:11Z</time>
      </trkpt>
      <trkpt lat="46.87819" lon="-71.65886">
        <ele>225.0859375</ele>
        <time>2016-03-22T15:34:29Z</time>
      </trkpt>
      <trkpt lat="46.87799" lon="-71.6589">
        <ele>225.56652832031</ele>
        <time>2016-03-22T15:34:46Z</time>
      </trkpt>
      <trkpt lat="46.87783" lon="-71.65895">
        <ele>225.0859375</ele>
        <time>2016-03-22T15:35:01Z</time>
      </trkpt>
      <trkpt lat="46.87765" lon="-71.6591">
        <ele>225.56652832031</ele>
        <time>2016-03-22T15:35:18Z</time>
      </trkpt>
      <trkpt lat="46.87753" lon="-71.65917">
        <ele>225.56652832031</ele>
        <time>2016-03-22T15:35:33Z</time>
      </trkpt>
      <trkpt lat="46.87736" lon="-71.6592">
        <ele>228.93115234375</ele>
        <time>2016-03-22T15:35:50Z</time>
      </trkpt>
      <trkpt lat="46.87726" lon="-71.6592">
        <ele>229.41174316406</ele>
        <time>2016-03-22T15:36:08Z</time>
      </trkpt>
      <trkpt lat="46.87725" lon="-71.6592">
        <ele>229.41174316406</ele>
        <time>2016-03-22T15:36:15Z</time>
      </trkpt>
      <trkpt lat="46.87714" lon="-71.65886">
        <ele>227.9697265625</ele>
        <time>2016-03-22T15:36:37Z</time>
      </trkpt>
      <trkpt lat="46.87714" lon="-71.65879">
        <ele>227.48913574219</ele>
        <time>2016-03-22T15:36:42Z</time>
      </trkpt>
      <trkpt lat="46.87721" lon="-71.65846">
        <ele>225.0859375</ele>
        <time>2016-03-22T15:37:01Z</time>
      </trkpt>
      <trkpt lat="46.87713" lon="-71.6582">
        <ele>225.0859375</ele>
        <time>2016-03-22T15:37:17Z</time>
      </trkpt>
      <trkpt lat="46.87697" lon="-71.65799">
        <ele>225.0859375</ele>
        <time>2016-03-22T15:37:35Z</time>
      </trkpt>
      <trkpt lat="46.87689" lon="-71.65783">
        <ele>225.0859375</ele>
        <time>2016-03-22T15:37:52Z</time>
      </trkpt>
      <trkpt lat="46.87686" lon="-71.65775">
        <ele>224.12451171875</ele>
        <time>2016-03-22T15:38:11Z</time>
      </trkpt>
      <trkpt lat="46.87683" lon="-71.65773">
        <ele>224.60522460938</ele>
        <time>2016-03-22T15:38:32Z</time>
      </trkpt>
      <trkpt lat="46.87677" lon="-71.6577">
        <ele>225.0859375</ele>
        <time>2016-03-22T15:38:46Z</time>
      </trkpt>
      <trkpt lat="46.8766" lon="-71.65753">
        <ele>226.04711914062</ele>
        <time>2016-03-22T15:39:04Z</time>
      </trkpt>
      <trkpt lat="46.8765" lon="-71.65743">
        <ele>226.52783203125</ele>
        <time>2016-03-22T15:39:19Z</time>
      </trkpt>
      <trkpt lat="46.87634" lon="-71.6573">
        <ele>226.52783203125</ele>
        <time>2016-03-22T15:39:35Z</time>
      </trkpt>
      <trkpt lat="46.87619" lon="-71.65714">
        <ele>225.56652832031</ele>
        <time>2016-03-22T15:39:49Z</time>
      </trkpt>
      <trkpt lat="46.87603" lon="-71.657">
        <ele>224.60522460938</ele>
        <time>2016-03-22T15:40:04Z</time>
      </trkpt>
      <trkpt lat="46.87586" lon="-71.65681">
        <ele>225.0859375</ele>
        <time>2016-03-22T15:40:21Z</time>
      </trkpt>
      <trkpt lat="46.87575" lon="-71.6565">
        <ele>224.12451171875</ele>
        <time>2016-03-22T15:40:40Z</time>
      </trkpt>
      <trkpt lat="46.87568" lon="-71.65643">
        <ele>224.12451171875</ele>
        <time>2016-03-22T15:40:46Z</time>
      </trkpt>
      <trkpt lat="46.87554" lon="-71.65617">
        <ele>224.12451171875</ele>
        <time>2016-03-22T15:41:05Z</time>
      </trkpt>
      <trkpt lat="46.87544" lon="-71.65594">
        <ele>222.68249511719</ele>
        <time>2016-03-22T15:41:20Z</time>
      </trkpt>
      <trkpt lat="46.87536" lon="-71.65564">
        <ele>220.27917480469</ele>
        <time>2016-03-22T15:41:38Z</time>
      </trkpt>
      <trkpt lat="46.8752" lon="-71.65545">
        <ele>220.27917480469</ele>
        <time>2016-03-22T15:41:53Z</time>
      </trkpt>
      <trkpt lat="46.87505" lon="-71.65526">
        <ele>219.31799316406</ele>
        <time>2016-03-22T15:42:09Z</time>
      </trkpt>
      <trkpt lat="46.87494" lon="-71.65506">
        <ele>217.39538574219</ele>
        <time>2016-03-22T15:42:23Z</time>
      </trkpt>
      <trkpt lat="46.87481" lon="-71.65481">
        <ele>216.91467285156</ele>
        <time>2016-03-22T15:42:40Z</time>
      </trkpt>
      <trkpt lat="46.87463" lon="-71.65465">
        <ele>215.47265625</ele>
        <time>2016-03-22T15:42:56Z</time>
      </trkpt>
      <trkpt lat="46.87437" lon="-71.65447">
        <ele>214.51123046875</ele>
        <time>2016-03-22T15:43:16Z</time>
      </trkpt>
      <trkpt lat="46.87422" lon="-71.65425">
        <ele>212.58862304688</ele>
        <time>2016-03-22T15:43:32Z</time>
      </trkpt>
      <trkpt lat="46.87406" lon="-71.65405">
        <ele>210.666015625</ele>
        <time>2016-03-22T15:43:49Z</time>
      </trkpt>
      <trkpt lat="46.87405" lon="-71.65402">
        <ele>210.18542480469</ele>
        <time>2016-03-22T15:43:51Z</time>
      </trkpt>
      <trkpt lat="46.87399" lon="-71.65371">
        <ele>209.70483398438</ele>
        <time>2016-03-22T15:44:08Z</time>
      </trkpt>
      <trkpt lat="46.87394" lon="-71.65345">
        <ele>210.666015625</ele>
        <time>2016-03-22T15:44:23Z</time>
      </trkpt>
      <trkpt lat="46.87387" lon="-71.65318">
        <ele>210.666015625</ele>
        <time>2016-03-22T15:44:39Z</time>
      </trkpt>
      <trkpt lat="46.87379" lon="-71.65296">
        <ele>210.666015625</ele>
        <time>2016-03-22T15:44:52Z</time>
      </trkpt>
      <trkpt lat="46.87372" lon="-71.65267">
        <ele>209.22412109375</ele>
        <time>2016-03-22T15:45:08Z</time>
      </trkpt>
      <trkpt lat="46.87372" lon="-71.65251">
        <ele>210.18542480469</ele>
        <time>2016-03-22T15:45:16Z</time>
      </trkpt>
      <trkpt lat="46.87369" lon="-71.65227">
        <ele>211.14672851562</ele>
        <time>2016-03-22T15:45:29Z</time>
      </trkpt>
      <trkpt lat="46.87363" lon="-71.65193">
        <ele>210.666015625</ele>
        <time>2016-03-22T15:45:47Z</time>
      </trkpt>
      <trkpt lat="46.87359" lon="-71.65175">
        <ele>210.18542480469</ele>
        <time>2016-03-22T15:45:58Z</time>
      </trkpt>
      <trkpt lat="46.87357" lon="-71.65171">
        <ele>210.18542480469</ele>
        <time>2016-03-22T15:46:01Z</time>
      </trkpt>
      <trkpt lat="46.87352" lon="-71.65142">
        <ele>206.82067871094</ele>
        <time>2016-03-22T15:46:17Z</time>
      </trkpt>
      <trkpt lat="46.87343" lon="-71.6511">
        <ele>205.37878417969</ele>
        <time>2016-03-22T15:46:35Z</time>
      </trkpt>
      <trkpt lat="46.87338" lon="-71.65086">
        <ele>204.41748046875</ele>
        <time>2016-03-22T15:46:49Z</time>
      </trkpt>
      <trkpt lat="46.87333" lon="-71.65068">
        <ele>205.37878417969</ele>
        <time>2016-03-22T15:47:00Z</time>
      </trkpt>
      <trkpt lat="46.87331" lon="-71.65063">
        <ele>204.41748046875</ele>
        <time>2016-03-22T15:47:03Z</time>
      </trkpt>
      <trkpt lat="46.87327" lon="-71.65051">
        <ele>203.45617675781</ele>
        <time>2016-03-22T15:47:12Z</time>
      </trkpt>
      <trkpt lat="46.87328" lon="-71.65031">
        <ele>203.93688964844</ele>
        <time>2016-03-22T15:47:26Z</time>
      </trkpt>
      <trkpt lat="46.87323" lon="-71.65002">
        <ele>203.93688964844</ele>
        <time>2016-03-22T15:47:42Z</time>
      </trkpt>
      <trkpt lat="46.87315" lon="-71.64986">
        <ele>202.97546386719</ele>
        <time>2016-03-22T15:47:58Z</time>
      </trkpt>
      <trkpt lat="46.87306" lon="-71.64971">
        <ele>202.97546386719</ele>
        <time>2016-03-22T15:48:14Z</time>
      </trkpt>
      <trkpt lat="46.87294" lon="-71.64948">
        <ele>203.45617675781</ele>
        <time>2016-03-22T15:48:32Z</time>
      </trkpt>
      <trkpt lat="46.87294" lon="-71.64946">
        <ele>203.45617675781</ele>
        <time>2016-03-22T15:48:33Z</time>
      </trkpt>
      <trkpt lat="46.87279" lon="-71.64927">
        <ele>206.34008789062</ele>
        <time>2016-03-22T15:48:50Z</time>
      </trkpt>
      <trkpt lat="46.87258" lon="-71.6491">
        <ele>208.26281738281</ele>
        <time>2016-03-22T15:49:08Z</time>
      </trkpt>
      <trkpt lat="46.87242" lon="-71.64896">
        <ele>209.22412109375</ele>
        <time>2016-03-22T15:49:25Z</time>
      </trkpt>
      <trkpt lat="46.87221" lon="-71.64882">
        <ele>210.18542480469</ele>
        <time>2016-03-22T15:49:44Z</time>
      </trkpt>
      <trkpt lat="46.87201" lon="-71.64872">
        <ele>210.666015625</ele>
        <time>2016-03-22T15:50:01Z</time>
      </trkpt>
      <trkpt lat="46.87182" lon="-71.64862">
        <ele>211.14672851562</ele>
        <time>2016-03-22T15:50:17Z</time>
      </trkpt>
      <trkpt lat="46.87161" lon="-71.64841">
        <ele>210.18542480469</ele>
        <time>2016-03-22T15:50:36Z</time>
      </trkpt>
      <trkpt lat="46.87155" lon="-71.64837">
        <ele>210.666015625</ele>
        <time>2016-03-22T15:50:41Z</time>
      </trkpt>
      <trkpt lat="46.87136" lon="-71.64815">
        <ele>210.18542480469</ele>
        <time>2016-03-22T15:51:01Z</time>
      </trkpt>
      <trkpt lat="46.8712" lon="-71.64796">
        <ele>210.18542480469</ele>
        <time>2016-03-22T15:51:18Z</time>
      </trkpt>
      <trkpt lat="46.87108" lon="-71.64772">
        <ele>210.18542480469</ele>
        <time>2016-03-22T15:51:36Z</time>
      </trkpt>
      <trkpt lat="46.87102" lon="-71.64749">
        <ele>212.10803222656</ele>
        <time>2016-03-22T15:51:51Z</time>
      </trkpt>
      <trkpt lat="46.87092" lon="-71.64722">
        <ele>210.18542480469</ele>
        <time>2016-03-22T15:52:10Z</time>
      </trkpt>
      <trkpt lat="46.87068" lon="-71.64699">
        <ele>206.82067871094</ele>
        <time>2016-03-22T15:52:30Z</time>
      </trkpt>
      <trkpt lat="46.87055" lon="-71.64687">
        <ele>205.85949707031</ele>
        <time>2016-03-22T15:52:41Z</time>
      </trkpt>
      <trkpt lat="46.87053" lon="-71.64681">
        <ele>204.89807128906</ele>
        <time>2016-03-22T15:52:45Z</time>
      </trkpt>
      <trkpt lat="46.87051" lon="-71.64649">
        <ele>204.89807128906</ele>
        <time>2016-03-22T15:53:03Z</time>
      </trkpt>
      <trkpt lat="46.87049" lon="-71.64623">
        <ele>203.93688964844</ele>
        <time>2016-03-22T15:53:17Z</time>
      </trkpt>
      <trkpt lat="46.87047" lon="-71.64591">
        <ele>204.89807128906</ele>
        <time>2016-03-22T15:53:34Z</time>
      </trkpt>
      <trkpt lat="46.87038" lon="-71.64567">
        <ele>203.93688964844</ele>
        <time>2016-03-22T15:53:48Z</time>
      </trkpt>
      <trkpt lat="46.87031" lon="-71.64532">
        <ele>204.41748046875</ele>
        <time>2016-03-22T15:54:05Z</time>
      </trkpt>
      <trkpt lat="46.87031" lon="-71.64512">
        <ele>204.89807128906</ele>
        <time>2016-03-22T15:54:15Z</time>
      </trkpt>
      <trkpt lat="46.87024" lon="-71.64473">
        <ele>203.93688964844</ele>
        <time>2016-03-22T15:54:35Z</time>
      </trkpt>
      <trkpt lat="46.87017" lon="-71.6444">
        <ele>202.97546386719</ele>
        <time>2016-03-22T15:54:53Z</time>
      </trkpt>
      <trkpt lat="46.87012" lon="-71.64409">
        <ele>202.49487304688</ele>
        <time>2016-03-22T15:55:09Z</time>
      </trkpt>
      <trkpt lat="46.8701" lon="-71.64376">
        <ele>201.53356933594</ele>
        <time>2016-03-22T15:55:26Z</time>
      </trkpt>
      <trkpt lat="46.87001" lon="-71.64357">
        <ele>200.09167480469</ele>
        <time>2016-03-22T15:55:40Z</time>
      </trkpt>
      <trkpt lat="46.86986" lon="-71.64348">
        <ele>196.72692871094</ele>
        <time>2016-03-22T15:55:54Z</time>
      </trkpt>
      <trkpt lat="46.86975" lon="-71.64343">
        <ele>195.28491210938</ele>
        <time>2016-03-22T15:56:07Z</time>
      </trkpt>
      <trkpt lat="46.86961" lon="-71.64321">
        <ele>192.88171386719</ele>
        <time>2016-03-22T15:56:22Z</time>
      </trkpt>
      <trkpt lat="46.86959" lon="-71.64311">
        <ele>192.40112304688</ele>
        <time>2016-03-22T15:56:28Z</time>
      </trkpt>
      <trkpt lat="46.86958" lon="-71.64303">
        <ele>191.92028808594</ele>
        <time>2016-03-22T15:56:32Z</time>
      </trkpt>
      <trkpt lat="46.86959" lon="-71.64299">
        <ele>192.40112304688</ele>
        <time>2016-03-22T15:56:50Z</time>
      </trkpt>
      <trkpt lat="46.86959" lon="-71.64299">
        <ele>192.40112304688</ele>
        <time>2016-03-22T15:56:56Z</time>
      </trkpt>
    </trkseg>
  </trk>
</gpx>